createdAt,value
2023-11-24T00:02:00.292Z,-0.88
2023-11-24T00:05:04.393Z,-0.84
2023-11-24T00:08:07.161Z,-0.90
2023-11-24T00:11:09.919Z,-1.00
2023-11-24T00:14:12.745Z,-1.06
2023-11-24T00:17:15.485Z,-1.10
2023-11-24T00:20:18.388Z,-1.16
2023-11-24T00:23:21.172Z,-1.27
2023-11-24T00:26:27.582Z,-1.38
2023-11-24T00:29:36.867Z,-1.43
2023-11-24T00:32:41.265Z,-1.40
2023-11-24T00:35:44.106Z,-1.35
2023-11-24T00:38:46.794Z,-1.31
2023-11-24T00:41:49.575Z,-1.22
2023-11-24T00:44:52.232Z,-1.17
2023-11-24T00:47:55.063Z,-1.12
2023-11-24T00:50:57.848Z,-1.00
2023-11-24T00:54:00.642Z,-0.97
2023-11-24T00:57:03.491Z,-0.89
2023-11-24T01:00:09.611Z,-0.97
2023-11-24T01:03:12.461Z,-0.98
2023-11-24T01:06:15.437Z,-1.04
2023-11-24T01:09:18.249Z,-1.11
2023-11-24T01:12:21.189Z,-1.05
2023-11-24T01:15:23.992Z,-1.15
2023-11-24T01:18:28.956Z,-1.04
2023-11-24T01:21:32.972Z,-1.01
2023-11-24T01:24:36.167Z,-1.03
2023-11-24T01:27:39.038Z,-1.08
2023-11-24T01:30:42.181Z,-1.07
2023-11-24T01:33:44.871Z,-1.12
2023-11-24T01:36:47.603Z,-1.17
2023-11-24T01:39:51.150Z,-1.19
2023-11-24T01:42:53.873Z,-1.23
2023-11-24T01:45:57.115Z,-1.31
2023-11-24T01:49:00.403Z,-1.14
2023-11-24T01:52:04.604Z,-1.10
2023-11-24T01:55:07.872Z,-1.13
2023-11-24T01:58:10.742Z,-1.16
2023-11-24T02:01:15.057Z,-1.23
2023-11-24T02:04:17.922Z,-1.19
2023-11-24T02:07:20.781Z,-1.15
2023-11-24T02:10:23.442Z,-1.18
2023-11-24T02:13:27.927Z,-1.19
2023-11-24T02:16:30.650Z,-1.17
2023-11-24T02:19:33.616Z,-1.17
2023-11-24T02:22:43.143Z,-1.16
2023-11-24T02:25:45.958Z,-1.22
2023-11-24T02:28:48.735Z,-1.27
2023-11-24T02:31:51.673Z,-1.30
2023-11-24T02:34:54.520Z,-1.16
2023-11-24T02:37:57.412Z,-1.15
2023-11-24T02:41:01.497Z,-1.12
2023-11-24T02:44:04.526Z,-1.07
2023-11-24T02:47:07.624Z,-1.01
2023-11-24T02:50:10.333Z,-1.00
2023-11-24T02:53:13.089Z,-1.02
2023-11-24T02:56:15.760Z,-0.97
2023-11-24T02:59:18.518Z,-0.93
2023-11-24T03:02:21.319Z,-0.86
2023-11-24T03:05:25.041Z,-0.92
2023-11-24T03:08:27.852Z,-0.93
2023-11-24T03:11:31.728Z,-0.89
2023-11-24T03:14:34.396Z,-0.82
2023-11-24T03:17:37.487Z,-0.70
2023-11-24T03:20:42.185Z,-0.69
2023-11-24T03:23:46.393Z,-0.73
2023-11-24T03:26:49.194Z,-0.74
2023-11-24T03:29:52.029Z,-0.65
2023-11-24T03:32:54.902Z,-0.53
2023-11-24T03:35:57.977Z,-0.42
2023-11-24T03:39:01.182Z,-0.49
2023-11-24T03:42:04.247Z,-0.54
2023-11-24T03:45:07.826Z,-0.49
2023-11-24T03:48:11.276Z,-0.43
2023-11-24T03:51:21.474Z,-0.53
2023-11-24T03:54:24.749Z,-0.54
2023-11-24T03:57:27.587Z,-0.61
2023-11-24T04:00:31.460Z,-0.65
2023-11-24T04:03:34.216Z,-0.68
2023-11-24T04:06:37.157Z,-0.77
2023-11-24T04:09:40.238Z,-0.73
2023-11-24T04:12:42.980Z,-0.75
2023-11-24T04:15:45.858Z,-0.85
2023-11-24T04:18:49.388Z,-0.93
2023-11-24T04:21:54.999Z,-0.90
2023-11-24T04:24:58.709Z,-0.89
2023-11-24T04:28:01.443Z,-0.90
2023-11-24T04:31:04.302Z,-0.87
2023-11-24T04:34:07.491Z,-0.81
2023-11-24T04:37:10.457Z,-0.73
2023-11-24T04:40:13.385Z,-0.74
2023-11-24T04:43:16.177Z,-0.54
2023-11-24T04:46:18.958Z,-0.47
2023-11-24T04:49:23.537Z,-0.41
2023-11-24T04:52:26.195Z,-0.39
2023-11-24T04:55:28.838Z,-0.41
2023-11-24T04:58:31.606Z,-0.33
2023-11-24T05:01:34.424Z,-0.27
2023-11-24T05:04:38.194Z,-0.32
2023-11-24T05:07:42.753Z,-0.34
2023-11-24T05:10:45.618Z,-0.37
2023-11-24T05:13:49.383Z,-0.38
2023-11-24T05:16:52.304Z,-0.44
2023-11-24T05:19:55.557Z,-0.30
2023-11-24T05:22:58.343Z,-0.28
2023-11-24T05:26:02.847Z,-0.22
2023-11-24T05:29:05.693Z,-0.21
2023-11-24T05:32:08.389Z,-0.31
2023-11-24T05:35:11.371Z,-0.45
2023-11-24T05:38:14.369Z,-0.46
2023-11-24T05:41:19.785Z,-0.49
2023-11-24T05:44:23.097Z,-0.66
2023-11-24T05:47:25.850Z,-0.60
2023-11-24T05:50:28.853Z,-0.67
2023-11-24T05:53:31.656Z,-0.58
2023-11-24T05:56:34.490Z,-0.67
2023-11-24T05:59:37.157Z,-0.61
2023-11-24T06:02:39.929Z,-0.68
2023-11-24T06:05:43.218Z,-0.66
2023-11-24T06:08:45.907Z,-0.63
2023-11-24T06:11:48.608Z,-0.69
2023-11-24T06:14:51.428Z,-0.55
2023-11-24T06:17:54.796Z,-0.63
2023-11-24T06:20:57.642Z,-0.64
2023-11-24T06:24:01.081Z,-0.50
2023-11-24T06:27:05.550Z,-0.36
2023-11-24T06:30:08.633Z,-0.33
2023-11-24T06:33:11.333Z,-0.39
2023-11-24T06:36:14.713Z,-0.29
2023-11-24T06:39:21.267Z,-0.39
2023-11-24T06:42:24.054Z,-0.21
2023-11-24T06:45:26.794Z,-0.29
2023-11-24T06:48:29.803Z,-0.31
2023-11-24T06:51:33.419Z,-0.23
2023-11-24T06:54:36.783Z,-0.25
2023-11-24T06:57:40.108Z,-0.16
2023-11-24T07:00:43.733Z,-0.05
2023-11-24T07:03:49.561Z,-0.06
2023-11-24T07:06:58.283Z,-0.07
2023-11-24T07:10:07.215Z,-0.03
2023-11-24T07:13:14.823Z,-0.03
2023-11-24T07:16:19.659Z,0.05
2023-11-24T07:19:25.751Z,0.49
2023-11-24T07:22:32.032Z,0.79
2023-11-24T07:25:34.970Z,1.18
2023-11-24T07:28:40.254Z,1.46
2023-11-24T07:31:43.205Z,1.70
2023-11-24T07:34:46.181Z,1.98
2023-11-24T07:37:48.939Z,2.25
2023-11-24T07:40:56.602Z,2.02
2023-11-24T07:43:59.346Z,2.22
2023-11-24T07:47:02.231Z,2.37
2023-11-24T07:50:05.878Z,2.31
2023-11-24T07:53:08.845Z,2.49
2023-11-24T07:56:11.572Z,2.75
2023-11-24T07:59:14.391Z,2.72
2023-11-24T08:02:17.248Z,2.72
2023-11-24T08:05:19.985Z,2.72
2023-11-24T08:08:23.569Z,2.61
2023-11-24T08:11:27.697Z,2.58
2023-11-24T08:14:30.804Z,2.69
2023-11-24T08:17:33.973Z,2.68
2023-11-24T08:20:36.853Z,2.90
2023-11-24T08:23:39.708Z,3.06
2023-11-24T08:26:42.672Z,3.09
2023-11-24T08:29:45.332Z,3.28
2023-11-24T08:32:50.167Z,3.26
2023-11-24T08:35:53.107Z,3.28
2023-11-24T08:38:56.241Z,3.65
2023-11-24T08:41:58.987Z,3.56
2023-11-24T08:45:01.990Z,3.80
2023-11-24T08:48:08.378Z,3.99
2023-11-24T08:51:11.132Z,3.86
2023-11-24T08:54:14.841Z,3.91
2023-11-24T08:57:17.909Z,3.79
2023-11-24T09:00:20.674Z,3.80
2023-11-24T09:03:25.988Z,3.84
2023-11-24T09:06:32.683Z,4.10
2023-11-24T09:09:35.592Z,3.92
2023-11-24T09:12:39.004Z,3.96
2023-11-24T09:15:44.736Z,4.01
2023-11-24T09:18:50.701Z,4.10
2023-11-24T09:21:53.679Z,4.10
2023-11-24T09:24:58.277Z,3.95
2023-11-24T09:28:02.072Z,4.04
2023-11-24T09:31:10.069Z,4.10
2023-11-24T09:34:16.312Z,4.42
2023-11-24T09:37:19.175Z,4.51
2023-11-24T09:40:25.324Z,4.62
2023-11-24T09:43:29.195Z,4.94
2023-11-24T09:46:42.456Z,5.02
2023-11-24T09:49:51.992Z,4.92
2023-11-24T09:53:00.378Z,4.93
2023-11-24T09:56:04.377Z,5.06
2023-11-24T09:59:12.654Z,5.70
2023-11-24T10:02:19.583Z,6.15
2023-11-24T10:05:22.753Z,6.61
2023-11-24T10:08:51.680Z,6.27
2023-11-24T10:12:21.058Z,6.45
2023-11-24T10:15:24.400Z,6.99
2023-11-24T10:18:27.377Z,6.54
2023-11-24T10:21:33.055Z,6.78
2023-11-24T10:24:38.761Z,6.77
2023-11-24T10:27:42.291Z,6.74
2023-11-24T10:30:46.565Z,6.34
2023-11-24T10:33:52.918Z,5.98
2023-11-24T10:36:56.797Z,5.98
2023-11-24T10:40:02.070Z,5.71
2023-11-24T10:43:07.865Z,5.54
2023-11-24T10:46:16.043Z,5.57
2023-11-24T10:49:34.886Z,6.00
2023-11-24T10:52:49.033Z,6.20
2023-11-24T10:55:54.828Z,5.75
2023-11-24T10:58:57.933Z,5.88
2023-11-24T11:02:06.922Z,5.67
2023-11-24T11:05:24.867Z,5.83
2023-11-24T11:08:37.570Z,5.97
2023-11-24T11:11:50.651Z,6.23
2023-11-24T11:14:53.418Z,6.48
2023-11-24T11:18:12.076Z,6.87
2023-11-24T11:21:41.556Z,7.02
2023-11-24T11:24:45.105Z,6.48
2023-11-24T11:27:48.418Z,6.84
2023-11-24T11:30:52.415Z,6.70
2023-11-24T11:33:55.381Z,6.77
2023-11-24T11:37:08.605Z,6.94
2023-11-24T11:40:13.901Z,7.05
2023-11-24T11:43:17.393Z,6.94
2023-11-24T11:46:20.264Z,6.96
2023-11-24T11:49:25.104Z,6.91
2023-11-24T11:52:29.433Z,6.60
2023-11-24T11:55:32.434Z,7.26
2023-11-24T11:58:36.536Z,7.32
2023-11-24T12:01:43.112Z,7.45
2023-11-24T12:04:49.031Z,7.37
2023-11-24T12:07:52.651Z,7.49
2023-11-24T12:10:55.578Z,7.55
2023-11-24T12:13:58.257Z,8.00
2023-11-24T12:17:01.390Z,8.04
2023-11-24T12:20:11.376Z,8.18
2023-11-24T12:23:20.700Z,7.89
2023-11-24T12:26:23.750Z,8.00
2023-11-24T12:29:27.774Z,8.38
2023-11-24T12:32:33.424Z,8.26
2023-11-24T12:35:36.333Z,7.92
2023-11-24T12:38:39.767Z,8.13
2023-11-24T12:41:44.906Z,8.18
2023-11-24T12:44:53.048Z,8.36
2023-11-24T12:48:07.915Z,8.10
2023-11-24T12:51:10.930Z,8.28
2023-11-24T12:54:14.057Z,8.49
2023-11-24T12:57:18.115Z,8.60
2023-11-24T13:00:27.405Z,8.94
2023-11-24T13:03:30.248Z,9.23
2023-11-24T13:06:32.989Z,9.55
2023-11-24T13:09:35.712Z,9.43
2023-11-24T13:12:42.876Z,9.34
2023-11-24T13:15:45.942Z,9.62
2023-11-24T13:18:48.738Z,9.26
2023-11-24T13:21:57.612Z,8.81
2023-11-24T13:25:01.615Z,8.58
2023-11-24T13:28:07.064Z,8.49
2023-11-24T13:31:10.160Z,8.54
2023-11-24T13:34:15.849Z,8.46
2023-11-24T13:37:19.438Z,8.46
2023-11-24T13:40:27.725Z,8.44
2023-11-24T13:43:30.855Z,8.40
2023-11-24T13:46:37.930Z,8.25
2023-11-24T13:49:44.118Z,8.11
2023-11-24T13:52:57.564Z,8.22
2023-11-24T13:56:00.963Z,8.02
2023-11-24T13:59:04.764Z,8.09
2023-11-24T14:02:08.766Z,7.87
2023-11-24T14:05:14.488Z,7.84
2023-11-24T14:08:17.258Z,8.00
2023-11-24T14:11:19.953Z,7.76
2023-11-24T14:14:22.765Z,7.73
2023-11-24T14:17:26.024Z,7.53
2023-11-24T14:20:28.810Z,7.38
2023-11-24T14:23:33.110Z,6.98
2023-11-24T14:26:36.153Z,7.01
2023-11-24T14:29:39.182Z,7.02
2023-11-24T14:32:42.759Z,7.02
2023-11-24T14:35:46.489Z,6.95
2023-11-24T14:38:50.039Z,6.88
2023-11-24T14:41:56.829Z,6.97
2023-11-24T14:44:59.730Z,6.79
2023-11-24T14:48:02.483Z,6.78
2023-11-24T14:51:06.999Z,6.62
2023-11-24T14:54:09.844Z,6.39
2023-11-24T14:57:14.264Z,6.26
2023-11-24T15:00:35.897Z,6.04
2023-11-24T15:03:40.913Z,5.90
2023-11-24T15:06:44.880Z,5.92
2023-11-24T15:09:49.995Z,5.81
2023-11-24T15:12:52.846Z,5.90
2023-11-24T15:15:57.396Z,5.83
2023-11-24T15:19:00.172Z,5.69
2023-11-24T15:22:20.042Z,5.60
2023-11-24T15:25:28.046Z,5.58
2023-11-24T15:28:34.746Z,5.65
2023-11-24T15:31:40.576Z,5.50
2023-11-24T15:34:44.982Z,5.47
2023-11-24T15:37:48.061Z,5.50
2023-11-24T15:40:53.004Z,5.61
2023-11-24T15:43:55.929Z,5.58
2023-11-24T15:46:58.712Z,5.57
2023-11-24T15:50:04.397Z,5.70
2023-11-24T15:53:07.543Z,5.51
2023-11-24T15:56:14.634Z,5.51
2023-11-24T15:59:24.772Z,5.49
2023-11-24T16:02:34.038Z,5.50
2023-11-24T16:05:41.941Z,5.44
2023-11-24T16:08:55.253Z,5.49
2023-11-24T16:12:03.212Z,5.37
2023-11-24T16:15:06.684Z,5.21
2023-11-24T16:18:12.667Z,5.31
2023-11-24T16:21:15.794Z,5.36
2023-11-24T16:24:19.657Z,5.33
2023-11-24T16:27:23.407Z,5.40
2023-11-24T16:30:26.265Z,5.39
2023-11-24T16:33:30.113Z,5.60
2023-11-24T16:36:36.032Z,5.60
2023-11-24T16:39:38.782Z,5.56
2023-11-24T16:42:42.208Z,5.52
2023-11-24T16:45:45.162Z,5.63
2023-11-24T16:48:47.910Z,5.71
2023-11-24T16:51:50.747Z,5.67
2023-11-24T16:54:53.688Z,5.67
2023-11-24T16:57:56.714Z,5.81
2023-11-24T17:01:00.464Z,5.92
2023-11-24T17:04:03.520Z,6.03
2023-11-24T17:07:07.451Z,5.96
2023-11-24T17:10:11.222Z,6.05
2023-11-24T17:13:13.972Z,6.02
2023-11-24T17:16:17.563Z,6.10
2023-11-24T17:19:21.299Z,6.15
2023-11-24T17:22:24.102Z,6.20
2023-11-24T17:25:35.179Z,6.15
2023-11-24T17:28:41.228Z,6.23
2023-11-24T17:31:44.521Z,6.13
2023-11-24T17:34:47.666Z,6.09
2023-11-24T17:37:50.484Z,6.36
2023-11-24T17:40:53.214Z,6.51
2023-11-24T17:43:55.975Z,6.51
2023-11-24T17:46:59.389Z,6.66
2023-11-24T17:50:02.086Z,6.71
2023-11-24T17:53:05.140Z,6.68
2023-11-24T17:56:08.935Z,6.68
2023-11-24T17:59:12.423Z,6.59
2023-11-24T18:02:15.137Z,6.43
2023-11-24T18:05:18.679Z,6.45
2023-11-24T18:08:23.707Z,6.38
2023-11-24T18:11:32.439Z,6.35
2023-11-24T18:14:35.251Z,6.36
2023-11-24T18:17:42.276Z,6.30
2023-11-24T18:20:46.911Z,6.36
2023-11-24T18:23:50.731Z,6.49
2023-11-24T18:26:53.733Z,6.56
2023-11-24T18:29:56.446Z,6.62
2023-11-24T18:32:59.592Z,6.66
2023-11-24T18:36:02.367Z,6.72
2023-11-24T18:39:05.120Z,6.72
2023-11-24T18:42:08.260Z,6.64
2023-11-24T18:45:11.650Z,6.60
2023-11-24T18:48:14.779Z,6.55
2023-11-24T18:51:17.705Z,6.51
2023-11-24T18:54:21.128Z,6.41
2023-11-24T18:57:23.851Z,6.36
2023-11-24T19:00:26.728Z,6.32
2023-11-24T19:03:30.753Z,6.33
2023-11-24T19:06:34.013Z,6.30
2023-11-24T19:09:37.171Z,6.27
2023-11-24T19:12:41.081Z,6.23
2023-11-24T19:15:46.922Z,6.23
2023-11-24T19:18:50.166Z,6.18
2023-11-24T19:21:53.685Z,6.17
2023-11-24T19:24:56.751Z,6.08
2023-11-24T19:28:00.715Z,6.06
2023-11-24T19:31:03.671Z,6.01
2023-11-24T19:34:07.408Z,6.00
2023-11-24T19:37:11.124Z,5.92
2023-11-24T19:40:15.646Z,5.85
2023-11-24T19:43:18.475Z,5.98
2023-11-24T19:46:23.397Z,5.86
2023-11-24T19:49:27.176Z,5.78
2023-11-24T19:52:30.276Z,5.70
2023-11-24T19:55:33.548Z,5.57
2023-11-24T19:58:36.635Z,5.52
2023-11-24T20:01:39.601Z,5.46
2023-11-24T20:04:42.791Z,5.38
2023-11-24T20:07:45.621Z,5.37
2023-11-24T20:10:48.942Z,5.49
2023-11-24T20:13:52.190Z,5.33
2023-11-24T20:16:55.372Z,5.32
2023-11-24T20:19:58.513Z,5.20
2023-11-24T20:23:01.474Z,5.15
2023-11-24T20:26:05.076Z,5.24
2023-11-24T20:29:09.126Z,5.16
2023-11-24T20:32:12.370Z,5.08
2023-11-24T20:35:15.222Z,5.00
2023-11-24T20:38:17.957Z,4.94
2023-11-24T20:41:21.812Z,4.92
2023-11-24T20:44:27.561Z,4.77
2023-11-24T20:47:31.013Z,4.77
2023-11-24T20:50:33.851Z,4.65
2023-11-24T20:53:38.943Z,4.59
2023-11-24T20:56:41.918Z,4.51
2023-11-24T20:59:45.121Z,4.40
2023-11-24T21:02:48.247Z,4.32
2023-11-24T21:05:51.204Z,4.28
2023-11-24T21:09:00.762Z,4.22
2023-11-24T21:12:03.665Z,4.18
2023-11-24T21:15:07.344Z,4.29
2023-11-24T21:18:12.865Z,4.26
2023-11-24T21:21:17.222Z,4.16
2023-11-24T21:24:19.910Z,4.16
2023-11-24T21:27:22.589Z,4.15
2023-11-24T21:30:25.696Z,4.10
2023-11-24T21:33:28.465Z,4.09
2023-11-24T21:36:32.229Z,3.97
2023-11-24T21:39:36.563Z,4.01
2023-11-24T21:42:41.665Z,3.99
2023-11-24T21:45:44.473Z,3.93
2023-11-24T21:48:47.799Z,3.88
2023-11-24T21:51:50.503Z,3.86
2023-11-24T21:54:54.114Z,3.87
2023-11-24T21:57:56.988Z,3.81
2023-11-24T22:00:59.838Z,3.76
2023-11-24T22:04:02.755Z,3.72
2023-11-24T22:07:05.548Z,3.71
2023-11-24T22:10:14.464Z,3.72
2023-11-24T22:13:17.218Z,3.72
2023-11-24T22:16:22.017Z,3.72
2023-11-24T22:19:24.820Z,3.78
2023-11-24T22:22:28.549Z,3.75
2023-11-24T22:25:31.376Z,3.70
2023-11-24T22:28:34.146Z,3.65
2023-11-24T22:31:36.907Z,3.66
2023-11-24T22:34:39.615Z,3.70
2023-11-24T22:37:42.370Z,3.74
2023-11-24T22:40:49.327Z,3.64
2023-11-24T22:43:54.021Z,3.67
2023-11-24T22:46:59.686Z,3.66
2023-11-24T22:50:02.403Z,3.65
2023-11-24T22:53:05.127Z,3.58
2023-11-24T22:56:17.871Z,3.56
2023-11-24T22:59:20.623Z,3.57
2023-11-24T23:02:24.387Z,3.58
2023-11-24T23:05:27.208Z,3.52
2023-11-24T23:08:30.054Z,3.46
2023-11-24T23:11:34.635Z,3.42
2023-11-24T23:14:40.119Z,3.55
2023-11-24T23:17:44.999Z,3.55
2023-11-24T23:20:47.832Z,3.56
2023-11-24T23:23:52.434Z,3.60
2023-11-24T23:26:55.104Z,3.63
2023-11-24T23:29:58.087Z,3.53
2023-11-24T23:33:10.460Z,3.49
2023-11-24T23:36:19.225Z,3.51
2023-11-24T23:39:22.089Z,3.52
2023-11-24T23:42:37.034Z,3.60
2023-11-24T23:45:40.150Z,3.52
2023-11-24T23:48:43.115Z,3.50
2023-11-24T23:51:45.833Z,3.43
2023-11-24T23:54:48.529Z,3.47
2023-11-24T23:57:51.660Z,3.48
